sensor_id;sensor_type;location;lat;lon;timestamp;pressure;altitude;pressure_sealevel;temperature;humidity
62833;BME280;48891;49.220;6.920;2023-08-30T00:02:33;98379.13;;;22.30;60.16
62833;BME280;48891;49.220;6.920;2023-08-30T00:05:03;98373.56;;;22.32;60.20
62833;BME280;48891;49.220;6.920;2023-08-30T00:07:28;98369.41;;;22.29;60.07
62833;BME280;48891;49.220;6.920;2023-08-30T00:09:54;98364.03;;;22.29;60.67
62833;BME280;48891;49.220;6.920;2023-08-30T00:12:19;98369.56;;;22.28;60.18
62833;BME280;48891;49.220;6.920;2023-08-30T00:14:44;98376.78;;;22.27;60.29
62833;BME280;48891;49.220;6.920;2023-08-30T00:17:09;98373.75;;;22.30;60.04
62833;BME280;48891;49.220;6.920;2023-08-30T00:19:35;98386.19;;;22.31;60.41
62833;BME280;48891;49.220;6.920;2023-08-30T00:22:00;98384.50;;;22.30;60.72
62833;BME280;48891;49.220;6.920;2023-08-30T00:24:25;98387.50;;;22.27;60.28
62833;BME280;48891;49.220;6.920;2023-08-30T00:26:51;98390.88;;;22.29;60.15
62833;BME280;48891;49.220;6.920;2023-08-30T00:29:16;98384.66;;;22.29;60.52
62833;BME280;48891;49.220;6.920;2023-08-30T00:31:41;98390.88;;;22.29;60.66
62833;BME280;48891;49.220;6.920;2023-08-30T00:34:06;98394.41;;;22.30;60.73
62833;BME280;48891;49.220;6.920;2023-08-30T00:36:31;98392.72;;;22.29;60.58
62833;BME280;48891;49.220;6.920;2023-08-30T00:38:57;98370.75;;;22.17;61.12
62833;BME280;48891;49.220;6.920;2023-08-30T00:41:22;98400.59;;;22.30;60.62
62833;BME280;48891;49.220;6.920;2023-08-30T00:43:47;98383.81;;;22.28;60.39
62833;BME280;48891;49.220;6.920;2023-08-30T00:46:13;98390.88;;;22.29;60.72
62833;BME280;48891;49.220;6.920;2023-08-30T00:48:39;98387.34;;;22.29;60.44
62833;BME280;48891;49.220;6.920;2023-08-30T00:51:05;98385.69;;;22.28;60.56
62833;BME280;48891;49.220;6.920;2023-08-30T00:53:31;98383.00;;;22.28;60.75
62833;BME280;48891;49.220;6.920;2023-08-30T00:55:57;98389.19;;;22.28;60.58
62833;BME280;48891;49.220;6.920;2023-08-30T00:58:22;98389.19;;;22.28;60.51
62833;BME280;48891;49.220;6.920;2023-08-30T01:00:47;98386.50;;;22.28;60.44
62833;BME280;48891;49.220;6.920;2023-08-30T01:03:13;98385.69;;;22.28;60.50
62833;BME280;48891;49.220;6.920;2023-08-30T01:05:38;98377.63;;;22.28;60.54
62833;BME280;48891;49.220;6.920;2023-08-30T01:08:04;98376.78;;;22.27;60.62
62833;BME280;48891;49.220;6.920;2023-08-30T01:10:44;98374.09;;;22.27;60.24
62833;BME280;48891;49.220;6.920;2023-08-30T01:13:15;98363.34;;;22.27;60.31
62833;BME280;48891;49.220;6.920;2023-08-30T01:15:42;98362.66;;;22.25;60.55
62833;BME280;48891;49.220;6.920;2023-08-30T01:18:08;98372.41;;;22.26;60.17
62833;BME280;48891;49.220;6.920;2023-08-30T01:20:37;98364.34;;;22.26;60.52
62833;BME280;48891;49.220;6.920;2023-08-30T01:23:08;98358.97;;;22.26;60.76
62833;BME280;48891;49.220;6.920;2023-08-30T01:26:03;98364.34;;;22.26;59.96
62833;BME280;48891;49.220;6.920;2023-08-30T01:28:30;98353.59;;;22.26;60.11
62833;BME280;48891;49.220;6.920;2023-08-30T01:30:57;98347.75;;;22.23;60.29
62833;BME280;48891;49.220;6.920;2023-08-30T01:33:24;98327.81;;;22.09;59.89
62833;BME280;48891;49.220;6.920;2023-08-30T01:35:50;98323.25;;;22.09;60.39
62833;BME280;48891;49.220;6.920;2023-08-30T01:38:16;98324.78;;;22.12;60.34
62833;BME280;48891;49.220;6.920;2023-08-30T01:40:43;98344.41;;;22.21;60.53
62833;BME280;48891;49.220;6.920;2023-08-30T01:43:09;98346.06;;;22.22;60.23
62833;BME280;48891;49.220;6.920;2023-08-30T01:45:37;98320.59;;;22.09;60.19
62833;BME280;48891;49.220;6.920;2023-08-30T01:48:03;98343.19;;;22.23;59.57
62833;BME280;48891;49.220;6.920;2023-08-30T01:50:29;98317.06;;;22.09;60.27
62833;BME280;48891;49.220;6.920;2023-08-30T01:52:55;98326.44;;;22.21;59.99
62833;BME280;48891;49.220;6.920;2023-08-30T01:55:21;98332.63;;;22.22;60.34
62833;BME280;48891;49.220;6.920;2023-08-30T01:57:47;98308.53;;;22.05;59.83
62833;BME280;48891;49.220;6.920;2023-08-30T02:00:12;98313.56;;;22.08;60.13
62833;BME280;48891;49.220;6.920;2023-08-30T02:02:38;98305.84;;;22.05;60.00
62833;BME280;48891;49.220;6.920;2023-08-30T02:05:03;98319.91;;;22.15;59.88
62833;BME280;48891;49.220;6.920;2023-08-30T02:07:36;98330.78;;;22.22;59.98
62833;BME280;48891;49.220;6.920;2023-08-30T02:10:06;98303.00;;;22.07;59.89
62833;BME280;48891;49.220;6.920;2023-08-30T02:12:46;98328.94;;;22.23;59.75
62833;BME280;48891;49.220;6.920;2023-08-30T02:15:13;98321.06;;;22.21;59.64
62833;BME280;48891;49.220;6.920;2023-08-30T02:17:39;98332.63;;;22.22;59.48
62833;BME280;48891;49.220;6.920;2023-08-30T02:20:08;98311.38;;;22.12;59.72
62833;BME280;48891;49.220;6.920;2023-08-30T02:22:34;98324.91;;;22.18;59.74
62833;BME280;48891;49.220;6.920;2023-08-30T02:24:59;98328.28;;;22.21;59.78
62833;BME280;48891;49.220;6.920;2023-08-30T02:27:24;98321.22;;;22.19;59.55
62833;BME280;48891;49.220;6.920;2023-08-30T02:29:50;98312.69;;;22.08;59.92
62833;BME280;48891;49.220;6.920;2023-08-30T02:32:15;98304.16;;;22.04;59.42
62833;BME280;48891;49.220;6.920;2023-08-30T02:34:40;98303.31;;;22.04;59.61
62833;BME280;48891;49.220;6.920;2023-08-30T02:37:05;98324.25;;;22.16;59.59
62833;BME280;48891;49.220;6.920;2023-08-30T02:39:31;98341.00;;;22.18;59.55
62833;BME280;48891;49.220;6.920;2023-08-30T02:41:56;98322.75;;;22.14;59.60
62833;BME280;48891;49.220;6.920;2023-08-30T02:44:21;98332.31;;;22.16;59.52
62833;BME280;48891;49.220;6.920;2023-08-30T02:46:46;98334.81;;;22.18;59.21
62833;BME280;48891;49.220;6.920;2023-08-30T02:49:12;98319.59;;;22.02;59.28
62833;BME280;48891;49.220;6.920;2023-08-30T02:51:37;98323.09;;;22.11;59.41
62833;BME280;48891;49.220;6.920;2023-08-30T02:54:02;98302.16;;;21.98;59.23
62833;BME280;48891;49.220;6.920;2023-08-30T02:56:27;98344.72;;;22.17;59.24
62833;BME280;48891;49.220;6.920;2023-08-30T02:58:53;98323.94;;;22.11;59.13
62833;BME280;48891;49.220;6.920;2023-08-30T03:01:18;98339.69;;;22.14;59.29
62833;BME280;48891;49.220;6.920;2023-08-30T03:03:45;98329.63;;;22.16;59.08
62833;BME280;48891;49.220;6.920;2023-08-30T03:06:11;98297.97;;;21.95;59.36
62833;BME280;48891;49.220;6.920;2023-08-30T03:08:36;98317.06;;;22.09;59.10
62833;BME280;48891;49.220;6.920;2023-08-30T03:11:09;98327.09;;;22.15;59.21
62833;BME280;48891;49.220;6.920;2023-08-30T03:13:34;98308.03;;;22.02;59.38
62833;BME280;48891;49.220;6.920;2023-08-30T03:15:59;98307.53;;;21.98;59.53
62833;BME280;48891;49.220;6.920;2023-08-30T03:18:25;98329.78;;;22.15;59.19
62833;BME280;48891;49.220;6.920;2023-08-30T03:20:59;98334.31;;;22.14;59.55
62833;BME280;48891;49.220;6.920;2023-08-30T03:23:26;98329.78;;;22.15;59.11
62833;BME280;48891;49.220;6.920;2023-08-30T03:25:51;98323.94;;;22.11;59.27
62833;BME280;48891;49.220;6.920;2023-08-30T03:28:16;98331.81;;;22.13;59.22
62833;BME280;48891;49.220;6.920;2023-08-30T03:30:41;98336.19;;;22.14;59.01
62833;BME280;48891;49.220;6.920;2023-08-30T03:33:07;98324.47;;;22.07;59.04
62833;BME280;48891;49.220;6.920;2023-08-30T03:35:34;98301.34;;;21.97;58.84
62833;BME280;48891;49.220;6.920;2023-08-30T03:37:59;98319.75;;;22.09;59.06
62833;BME280;48891;49.220;6.920;2023-08-30T03:40:24;98315.72;;;22.13;59.18
62833;BME280;48891;49.220;6.920;2023-08-30T03:42:50;98311.19;;;22.13;59.05
62833;BME280;48891;49.220;6.920;2023-08-30T03:45:15;98311.19;;;22.13;59.15
62833;BME280;48891;49.220;6.920;2023-08-30T03:47:40;98316.56;;;22.13;59.10
62833;BME280;48891;49.220;6.920;2023-08-30T03:50:06;98318.38;;;22.13;59.08
62833;BME280;48891;49.220;6.920;2023-08-30T03:52:31;98319.25;;;22.13;59.27
62833;BME280;48891;49.220;6.920;2023-08-30T03:54:57;98313.88;;;22.13;59.06
62833;BME280;48891;49.220;6.920;2023-08-30T03:57:22;98312.34;;;22.11;59.12
62833;BME280;48891;49.220;6.920;2023-08-30T03:59:47;98316.72;;;22.12;59.27
62833;BME280;48891;49.220;6.920;2023-08-30T04:02:12;98317.72;;;22.11;59.09
62833;BME280;48891;49.220;6.920;2023-08-30T04:04:37;98311.38;;;22.12;58.99
62833;BME280;48891;49.220;6.920;2023-08-30T04:07:03;98314.22;;;22.10;58.73
62833;BME280;48891;49.220;6.920;2023-08-30T04:09:28;98281.88;;;21.95;58.77
62833;BME280;48891;49.220;6.920;2023-08-30T04:11:53;98305.34;;;22.10;59.23
62833;BME280;48891;49.220;6.920;2023-08-30T04:14:19;98310.72;;;22.10;59.13
62833;BME280;48891;49.220;6.920;2023-08-30T04:16:44;98301.78;;;22.09;58.68
62833;BME280;48891;49.220;6.920;2023-08-30T04:19:09;98282.91;;;21.94;58.89
62833;BME280;48891;49.220;6.920;2023-08-30T04:21:34;98293.25;;;22.06;58.83
62833;BME280;48891;49.220;6.920;2023-08-30T04:23:59;98311.69;;;22.09;58.65
62833;BME280;48891;49.220;6.920;2023-08-30T04:26:25;98300.31;;;22.07;58.63
62833;BME280;48891;49.220;6.920;2023-08-30T04:28:50;98293.78;;;22.01;58.49
62833;BME280;48891;49.220;6.920;2023-08-30T04:31:15;98285.56;;;21.94;58.60
62833;BME280;48891;49.220;6.920;2023-08-30T04:33:40;98290.28;;;21.92;58.57
62833;BME280;48891;49.220;6.920;2023-08-30T04:36:06;98312.69;;;22.08;58.46
62833;BME280;48891;49.220;6.920;2023-08-30T04:38:31;98309.69;;;22.03;58.79
62833;BME280;48891;49.220;6.920;2023-08-30T04:41:00;98319.09;;;22.07;58.65
62833;BME280;48891;49.220;6.920;2023-08-30T04:43:25;98288.94;;;21.96;58.55
62833;BME280;48891;49.220;6.920;2023-08-30T04:45:50;98271.66;;;21.91;58.49
62833;BME280;48891;49.220;6.920;2023-08-30T04:48:15;98279.56;;;21.92;58.60
62833;BME280;48891;49.220;6.920;2023-08-30T04:50:41;98308.34;;;22.07;58.17
62833;BME280;48891;49.220;6.920;2023-08-30T04:53:06;98296.81;;;21.98;58.39
62833;BME280;48891;49.220;6.920;2023-08-30T04:55:31;98290.59;;;21.97;58.46
62833;BME280;48891;49.220;6.920;2023-08-30T04:57:56;98306.84;;;22.04;58.27
62833;BME280;48891;49.220;6.920;2023-08-30T05:00:21;98298.78;;;22.04;58.45
62833;BME280;48891;49.220;6.920;2023-08-30T05:02:47;98304.16;;;22.04;58.35
62833;BME280;48891;49.220;6.920;2023-08-30T05:05:13;98300.47;;;22.05;58.38
62833;BME280;48891;49.220;6.920;2023-08-30T05:07:38;98301.47;;;22.04;58.34
62833;BME280;48891;49.220;6.920;2023-08-30T05:10:04;98305.00;;;22.05;58.40
62833;BME280;48891;49.220;6.920;2023-08-30T05:12:30;98292.59;;;21.95;58.20
62833;BME280;48891;49.220;6.920;2023-08-30T05:14:55;98310.56;;;22.03;58.62
62833;BME280;48891;49.220;6.920;2023-08-30T05:17:20;98291.63;;;21.88;58.17
62833;BME280;48891;49.220;6.920;2023-08-30T05:19:46;98320.25;;;22.04;58.46
62833;BME280;48891;49.220;6.920;2023-08-30T05:22:11;98316.91;;;22.02;58.14
62833;BME280;48891;49.220;6.920;2023-08-30T05:24:36;98290.78;;;21.88;58.13
62833;BME280;48891;49.220;6.920;2023-08-30T05:27:02;98298.94;;;22.03;58.43
62833;BME280;48891;49.220;6.920;2023-08-30T05:29:27;98304.31;;;22.03;58.27
62833;BME280;48891;49.220;6.920;2023-08-30T05:31:52;98297.28;;;22.02;57.93
62833;BME280;48891;49.220;6.920;2023-08-30T05:34:18;98281.38;;;21.92;58.15
62833;BME280;48891;49.220;6.920;2023-08-30T05:36:43;98299.97;;;22.02;58.15
62833;BME280;48891;49.220;6.920;2023-08-30T05:39:08;98297.28;;;22.02;58.08
62833;BME280;48891;49.220;6.920;2023-08-30T05:41:33;98265.97;;;21.86;57.93
62833;BME280;48891;49.220;6.920;2023-08-30T05:43:59;98291.09;;;22.01;58.12
62833;BME280;48891;49.220;6.920;2023-08-30T05:46:24;98258.81;;;21.78;58.25
62833;BME280;48891;49.220;6.920;2023-08-30T05:48:49;98297.47;;;22.00;58.27
62833;BME280;48891;49.220;6.920;2023-08-30T05:51:15;98298.28;;;22.00;58.50
62833;BME280;48891;49.220;6.920;2023-08-30T05:53:40;98306.34;;;22.00;58.29
62833;BME280;48891;49.220;6.920;2023-08-30T05:56:05;98295.97;;;21.97;57.90
62833;BME280;48891;49.220;6.920;2023-08-30T05:58:30;98304.69;;;21.99;58.31
62833;BME280;48891;49.220;6.920;2023-08-30T06:00:58;98304.69;;;21.99;58.28
62833;BME280;48891;49.220;6.920;2023-08-30T06:03:24;98299.31;;;21.99;58.76
62833;BME280;48891;49.220;6.920;2023-08-30T06:05:49;98298.28;;;22.00;58.17
62833;BME280;48891;49.220;6.920;2023-08-30T06:08:15;98309.03;;;22.00;58.47
62833;BME280;48891;49.220;6.920;2023-08-30T06:10:40;98277.72;;;21.85;58.29
62833;BME280;48891;49.220;6.920;2023-08-30T06:13:05;98311.72;;;22.00;58.25
62833;BME280;48891;49.220;6.920;2023-08-30T06:15:31;98319.94;;;21.99;58.51
62833;BME280;48891;49.220;6.920;2023-08-30T06:17:56;98300.53;;;21.89;58.48
62833;BME280;48891;49.220;6.920;2023-08-30T06:20:21;98327.81;;;22.00;58.49
62833;BME280;48891;49.220;6.920;2023-08-30T06:22:46;98317.09;;;22.00;58.52
62833;BME280;48891;49.220;6.920;2023-08-30T06:25:12;98310.88;;;22.00;58.22
62833;BME280;48891;49.220;6.920;2023-08-30T06:27:56;98315.25;;;22.01;58.10
62833;BME280;48891;49.220;6.920;2023-08-30T06:30:21;98317.25;;;21.99;58.59
62833;BME280;48891;49.220;6.920;2023-08-30T06:32:47;98316.25;;;22.00;58.35
62833;BME280;48891;49.220;6.920;2023-08-30T06:35:12;98309.19;;;21.99;58.28
62833;BME280;48891;49.220;6.920;2023-08-30T06:37:37;98313.91;;;21.97;58.19
62833;BME280;48891;49.220;6.920;2023-08-30T06:40:03;98307.38;;;21.99;58.61
62833;BME280;48891;49.220;6.920;2023-08-30T06:42:28;98310.06;;;21.99;58.56
62833;BME280;48891;49.220;6.920;2023-08-30T06:44:53;98311.72;;;22.00;58.36
62833;BME280;48891;49.220;6.920;2023-08-30T06:47:18;98323.47;;;21.99;58.31
62833;BME280;48891;49.220;6.920;2023-08-30T06:49:44;98323.31;;;22.01;58.52
62833;BME280;48891;49.220;6.920;2023-08-30T06:52:09;98324.13;;;22.02;58.51
62833;BME280;48891;49.220;6.920;2023-08-30T06:54:34;98306.72;;;21.89;58.67
62833;BME280;48891;49.220;6.920;2023-08-30T06:57:00;98303.88;;;21.91;58.37
62833;BME280;48891;49.220;6.920;2023-08-30T06:59:26;98310.06;;;21.99;58.37
62833;BME280;48891;49.220;6.920;2023-08-30T07:01:52;98313.56;;;22.00;58.30
62833;BME280;48891;49.220;6.920;2023-08-30T07:04:17;98301.19;;;21.91;58.46
62833;BME280;48891;49.220;6.920;2023-08-30T07:06:42;98308.19;;;22.00;58.42
62833;BME280;48891;49.220;6.920;2023-08-30T07:09:07;98318.09;;;21.99;58.49
62833;BME280;48891;49.220;6.920;2023-08-30T07:11:34;98284.09;;;21.84;58.11
62833;BME280;48891;49.220;6.920;2023-08-30T07:13:59;98320.63;;;22.01;58.09
62833;BME280;48891;49.220;6.920;2023-08-30T07:16:24;98321.63;;;22.00;58.32
62833;BME280;48891;49.220;6.920;2023-08-30T07:18:50;98329.66;;;22.00;58.79
62833;BME280;48891;49.220;6.920;2023-08-30T07:21:15;98319.97;;;21.91;58.46
62833;BME280;48891;49.220;6.920;2023-08-30T07:23:40;98333.19;;;22.00;58.00
62833;BME280;48891;49.220;6.920;2023-08-30T07:26:05;98335.88;;;22.00;58.46
62833;BME280;48891;49.220;6.920;2023-08-30T07:28:31;98334.22;;;21.99;58.67
62833;BME280;48891;49.220;6.920;2023-08-30T07:31:05;98321.81;;;21.90;58.29
62833;BME280;48891;49.220;6.920;2023-08-30T07:33:30;98334.03;;;22.01;58.46
62833;BME280;48891;49.220;6.920;2023-08-30T07:35:56;98326.81;;;22.02;58.02
62833;BME280;48891;49.220;6.920;2023-08-30T07:38:22;98335.88;;;22.00;58.44
62833;BME280;48891;49.220;6.920;2023-08-30T07:40:47;98320.78;;;21.99;58.30
62833;BME280;48891;49.220;6.920;2023-08-30T07:43:12;98293.31;;;21.81;58.61
62833;BME280;48891;49.220;6.920;2023-08-30T07:45:37;98314.06;;;21.95;58.14
62833;BME280;48891;49.220;6.920;2023-08-30T07:48:03;98320.44;;;22.03;58.08
62833;BME280;48891;49.220;6.920;2023-08-30T07:50:28;98320.44;;;22.03;58.14
62833;BME280;48891;49.220;6.920;2023-08-30T07:52:53;98327.47;;;22.04;58.40
62833;BME280;48891;49.220;6.920;2023-08-30T07:55:19;98310.41;;;21.88;58.20
62833;BME280;48891;49.220;6.920;2023-08-30T07:57:44;98320.97;;;21.98;58.04
62833;BME280;48891;49.220;6.920;2023-08-30T08:00:10;98326.50;;;22.05;58.35
62833;BME280;48891;49.220;6.920;2023-08-30T08:02:35;98331.84;;;22.05;58.45
62833;BME280;48891;49.220;6.920;2023-08-30T08:05:00;98331.84;;;22.05;58.14
62833;BME280;48891;49.220;6.920;2023-08-30T08:07:26;98339.91;;;22.05;58.17
62833;BME280;48891;49.220;6.920;2023-08-30T08:09:51;98340.56;;;22.07;58.17
62833;BME280;48891;49.220;6.920;2023-08-30T08:12:16;98330.81;;;22.06;58.44
62833;BME280;48891;49.220;6.920;2023-08-30T08:14:43;98328.81;;;22.08;58.11
62833;BME280;48891;49.220;6.920;2023-08-30T08:17:08;98305.53;;;21.92;58.29
62833;BME280;48891;49.220;6.920;2023-08-30T08:19:33;98327.97;;;22.07;58.14
62833;BME280;48891;49.220;6.920;2023-08-30T08:21:59;98337.56;;;22.10;57.98
62833;BME280;48891;49.220;6.920;2023-08-30T08:24:24;98332.34;;;22.08;58.06
62833;BME280;48891;49.220;6.920;2023-08-30T08:26:49;98334.16;;;22.08;57.93
62833;BME280;48891;49.220;6.920;2023-08-30T08:29:14;98335.69;;;22.10;57.93
62833;BME280;48891;49.220;6.920;2023-08-30T08:31:40;98338.53;;;22.09;58.22
62833;BME280;48891;49.220;6.920;2023-08-30T08:34:10;98323.09;;;22.03;57.93
62833;BME280;48891;49.220;6.920;2023-08-30T08:36:40;98340.88;;;22.12;58.37
62833;BME280;48891;49.220;6.920;2023-08-30T08:39:06;98333.19;;;22.09;57.94
62833;BME280;48891;49.220;6.920;2023-08-30T08:41:41;98291.59;;;21.96;57.82
62833;BME280;48891;49.220;6.920;2023-08-30T08:44:07;98317.56;;;22.12;58.10
62833;BME280;48891;49.220;6.920;2023-08-30T08:46:35;98290.25;;;22.00;58.00
62833;BME280;48891;49.220;6.920;2023-08-30T08:49:05;98299.09;;;22.09;58.04
62833;BME280;48891;49.220;6.920;2023-08-30T08:51:31;98311.84;;;22.15;58.24
62833;BME280;48891;49.220;6.920;2023-08-30T08:54:02;98312.69;;;22.16;58.25
62833;BME280;48891;49.220;6.920;2023-08-30T08:56:29;98309.84;;;22.17;58.20
62833;BME280;48891;49.220;6.920;2023-08-30T08:58:54;98312.34;;;22.19;58.15
62833;BME280;48891;49.220;6.920;2023-08-30T09:01:20;98309.00;;;22.17;58.38
62833;BME280;48891;49.220;6.920;2023-08-30T09:03:45;98308.16;;;22.16;58.38
62833;BME280;48891;49.220;6.920;2023-08-30T09:06:11;98279.88;;;21.97;58.39
62833;BME280;48891;49.220;6.920;2023-08-30T09:08:36;98315.03;;;22.19;58.23
62833;BME280;48891;49.220;6.920;2023-08-30T09:11:02;98283.06;;;22.01;58.27
62833;BME280;48891;49.220;6.920;2023-08-30T09:13:27;98287.38;;;22.02;58.21
62833;BME280;48891;49.220;6.920;2023-08-30T09:15:52;98297.56;;;22.15;58.15
62833;BME280;48891;49.220;6.920;2023-08-30T09:18:18;98282.84;;;22.03;58.16
62833;BME280;48891;49.220;6.920;2023-08-30T09:20:44;98308.94;;;22.25;58.44
62833;BME280;48891;49.220;6.920;2023-08-30T09:23:19;98317.19;;;22.24;58.48
62833;BME280;48891;49.220;6.920;2023-08-30T09:25:45;98307.13;;;22.26;58.39
62833;BME280;48891;49.220;6.920;2023-08-30T09:28:10;98303.59;;;22.25;58.19
62833;BME280;48891;49.220;6.920;2023-08-30T09:30:35;98310.63;;;22.26;58.31
62833;BME280;48891;49.220;6.920;2023-08-30T09:33:02;98307.97;;;22.26;58.24
62833;BME280;48891;49.220;6.920;2023-08-30T09:35:27;98298.25;;;22.17;58.16
62833;BME280;48891;49.220;6.920;2023-08-30T09:37:52;98306.97;;;22.27;58.29
62833;BME280;48891;49.220;6.920;2023-08-30T09:40:20;98302.44;;;22.28;58.36
62833;BME280;48891;49.220;6.920;2023-08-30T09:42:46;98298.22;;;22.25;58.48
62833;BME280;48891;49.220;6.920;2023-08-30T09:45:23;98296.22;;;22.27;58.32
62833;BME280;48891;49.220;6.920;2023-08-30T09:47:49;98272.59;;;22.14;58.37
62833;BME280;48891;49.220;6.920;2023-08-30T09:50:20;98270.88;;;22.22;57.97
62833;BME280;48891;49.220;6.920;2023-08-30T09:52:49;98282.44;;;22.30;58.14
62833;BME280;48891;49.220;6.920;2023-08-30T09:55:15;98281.63;;;22.30;58.13
62833;BME280;48891;49.220;6.920;2023-08-30T09:57:42;98278.94;;;22.30;58.46
62833;BME280;48891;49.220;6.920;2023-08-30T10:00:08;98247.78;;;22.12;58.11
62833;BME280;48891;49.220;6.920;2023-08-30T10:02:33;98265.00;;;22.26;58.07
62833;BME280;48891;49.220;6.920;2023-08-30T10:04:59;98240.38;;;22.14;58.08
62833;BME280;48891;49.220;6.920;2023-08-30T10:07:24;98265.16;;;22.25;58.53
62833;BME280;48891;49.220;6.920;2023-08-30T10:09:51;98265.00;;;22.26;58.36
62833;BME280;48891;49.220;6.920;2023-08-30T10:14:43;98251.44;;;22.28;58.56
62833;BME280;48891;49.220;6.920;2023-08-30T10:17:10;98263.31;;;22.33;58.21
62833;BME280;48891;49.220;6.920;2023-08-30T10:19:37;98241.69;;;22.18;58.24
62833;BME280;48891;49.220;6.920;2023-08-30T10:22:05;98251.91;;;22.23;58.20
62833;BME280;48891;49.220;6.920;2023-08-30T10:24:37;98270.34;;;22.34;58.26
62833;BME280;48891;49.220;6.920;2023-08-30T10:27:04;98262.50;;;22.33;58.03
62833;BME280;48891;49.220;6.920;2023-08-30T10:29:32;98241.19;;;22.23;58.21
62833;BME280;48891;49.220;6.920;2023-08-30T10:32:05;98250.53;;;22.35;58.02
62833;BME280;48891;49.220;6.920;2023-08-30T10:34:36;98257.59;;;22.36;58.14
62833;BME280;48891;49.220;6.920;2023-08-30T10:37:03;98248.50;;;22.37;58.34
62833;BME280;48891;49.220;6.920;2023-08-30T10:39:36;98241.28;;;22.38;58.06
62833;BME280;48891;49.220;6.920;2023-08-30T10:42:08;98243.16;;;22.37;58.28
62833;BME280;48891;49.220;6.920;2023-08-30T10:44:34;98243.81;;;22.40;58.31
62833;BME280;48891;49.220;6.920;2023-08-30T10:47:02;98244.50;;;22.42;58.19
62833;BME280;48891;49.220;6.920;2023-08-30T10:49:27;98236.59;;;22.40;57.93
62833;BME280;48891;49.220;6.920;2023-08-30T10:51:57;98235.75;;;22.40;58.13
62833;BME280;48891;49.220;6.920;2023-08-30T10:54:22;98230.53;;;22.38;58.08
62833;BME280;48891;49.220;6.920;2023-08-30T10:59:21;98231.56;;;22.37;58.25
62833;BME280;48891;49.220;6.920;2023-08-30T11:01:47;98235.09;;;22.37;58.12
62833;BME280;48891;49.220;6.920;2023-08-30T11:04:15;98238.81;;;22.36;58.14
62833;BME280;48891;49.220;6.920;2023-08-30T11:06:47;98238.81;;;22.36;57.86
62833;BME280;48891;49.220;6.920;2023-08-30T11:09:14;98229.72;;;22.37;58.16
62833;BME280;48891;49.220;6.920;2023-08-30T11:11:40;98230.53;;;22.38;58.09
62833;BME280;48891;49.220;6.920;2023-08-30T11:14:08;98198.06;;;22.16;58.14
62833;BME280;48891;49.220;6.920;2023-08-30T11:16:34;98240.47;;;22.37;58.20
62833;BME280;48891;49.220;6.920;2023-08-30T11:19:01;98234.09;;;22.39;57.76
62833;BME280;48891;49.220;6.920;2023-08-30T11:21:26;98208.31;;;22.29;57.76
62833;BME280;48891;49.220;6.920;2023-08-30T11:23:51;98225.69;;;22.42;57.99
62833;BME280;48891;49.220;6.920;2023-08-30T11:26:17;98222.16;;;22.41;57.89
62833;BME280;48891;49.220;6.920;2023-08-30T11:28:42;98226.34;;;22.44;58.26
62833;BME280;48891;49.220;6.920;2023-08-30T11:31:07;98227.16;;;22.44;58.25
62833;BME280;48891;49.220;6.920;2023-08-30T11:33:33;98202.94;;;22.29;58.29
62833;BME280;48891;49.220;6.920;2023-08-30T11:35:58;98219.47;;;22.41;58.32
62833;BME280;48891;49.220;6.920;2023-08-30T11:38:23;98209.59;;;22.33;58.69
62833;BME280;48891;49.220;6.920;2023-08-30T11:40:49;98223.00;;;22.42;58.60
62833;BME280;48891;49.220;6.920;2023-08-30T11:43:15;98222.16;;;22.41;58.71
62833;BME280;48891;49.220;6.920;2023-08-30T11:45:40;98223.19;;;22.40;58.38
62833;BME280;48891;49.220;6.920;2023-08-30T11:48:06;98222.31;;;22.40;58.58
62833;BME280;48891;49.220;6.920;2023-08-30T11:50:31;98217.63;;;22.42;58.55
62833;BME280;48891;49.220;6.920;2023-08-30T11:52:57;98202.56;;;22.32;58.61
62833;BME280;48891;49.220;6.920;2023-08-30T11:55:22;98223.81;;;22.42;58.60
62833;BME280;48891;49.220;6.920;2023-08-30T11:57:50;98226.50;;;22.42;58.51
62833;BME280;48891;49.220;6.920;2023-08-30T12:00:18;98209.78;;;22.32;58.64
62833;BME280;48891;49.220;6.920;2023-08-30T12:02:45;98192.03;;;22.23;58.48
62833;BME280;48891;49.220;6.920;2023-08-30T12:05:12;98190.81;;;22.25;58.59
62833;BME280;48891;49.220;6.920;2023-08-30T12:07:38;98220.31;;;22.42;58.35
62833;BME280;48891;49.220;6.920;2023-08-30T12:10:07;98214.94;;;22.42;58.76
62833;BME280;48891;49.220;6.920;2023-08-30T12:12:33;98204.56;;;22.39;58.20
62833;BME280;48891;49.220;6.920;2023-08-30T12:14:58;98212.25;;;22.42;58.73
62833;BME280;48891;49.220;6.920;2023-08-30T12:17:23;98196.00;;;22.35;58.40
62833;BME280;48891;49.220;6.920;2023-08-30T12:19:58;98204.69;;;22.45;58.32
62833;BME280;48891;49.220;6.920;2023-08-30T12:22:24;98173.41;;;22.29;58.44
62833;BME280;48891;49.220;6.920;2023-08-30T12:24:59;98195.59;;;22.46;58.19
62833;BME280;48891;49.220;6.920;2023-08-30T12:27:24;98192.91;;;22.46;58.06
62833;BME280;48891;49.220;6.920;2023-08-30T12:29:50;98173.88;;;22.33;58.19
62833;BME280;48891;49.220;6.920;2023-08-30T12:32:15;98197.47;;;22.46;58.38
62833;BME280;48891;49.220;6.920;2023-08-30T12:34:40;98188.75;;;22.44;58.17
62833;BME280;48891;49.220;6.920;2023-08-30T12:37:05;98193.75;;;22.47;58.25
62833;BME280;48891;49.220;6.920;2023-08-30T12:39:30;98165.34;;;22.29;58.21
62833;BME280;48891;49.220;6.920;2023-08-30T12:41:56;98190.41;;;22.45;58.16
62833;BME280;48891;49.220;6.920;2023-08-30T12:44:21;98197.94;;;22.49;57.68
62833;BME280;48891;49.220;6.920;2023-08-30T12:46:46;98174.16;;;22.38;58.07
62833;BME280;48891;49.220;6.920;2023-08-30T12:49:11;98196.38;;;22.55;58.15
62833;BME280;48891;49.220;6.920;2023-08-30T12:51:37;98198.06;;;22.56;57.98
62833;BME280;48891;49.220;6.920;2023-08-30T12:54:02;98193.69;;;22.55;57.95
62833;BME280;48891;49.220;6.920;2023-08-30T12:56:27;98188.16;;;22.56;57.78
62833;BME280;48891;49.220;6.920;2023-08-30T12:58:52;98182.59;;;22.58;57.77
62833;BME280;48891;49.220;6.920;2023-08-30T13:01:18;98155.56;;;22.36;57.77